createdAt,value
2022-11-06T00:01:31.180Z,8.6
2022-11-06T00:06:38.542Z,8.6
2022-11-06T00:11:44.719Z,8.6
2022-11-06T00:16:50.931Z,8.6
2022-11-06T00:21:58.359Z,8.6
2022-11-06T00:27:10.854Z,8.5
2022-11-06T00:32:32.588Z,8.5
2022-11-06T00:37:37.583Z,8.4
2022-11-06T00:42:59.322Z,8.4
2022-11-06T00:48:20.988Z,8.4
2022-11-06T00:53:44.377Z,8.4
2022-11-06T00:59:06.851Z,8.4
2022-11-06T01:04:30.099Z,8.3
2022-11-06T01:09:51.663Z,8.3
2022-11-06T01:15:40.744Z,8.3
2022-11-06T01:21:03.057Z,8.1
2022-11-06T01:26:37.567Z,8.1
2022-11-06T01:32:30.260Z,7.9
2022-11-06T01:37:36.636Z,7.9
2022-11-06T01:42:58.364Z,7.8
2022-11-06T01:48:40.442Z,7.7
2022-11-06T01:54:01.967Z,7.6
2022-11-06T01:59:24.769Z,7.6
2022-11-06T02:04:48.696Z,7.5
2022-11-06T02:09:54.505Z,7.4
2022-11-06T02:15:32.036Z,7.4
2022-11-06T02:21:08.136Z,7.3
2022-11-06T02:26:45.029Z,7.3
2022-11-06T02:37:28.741Z,7.3
2022-11-06T02:42:50.823Z,7.3
2022-11-06T02:48:27.989Z,7.4
2022-11-06T02:54:05.483Z,7.4
2022-11-06T02:59:27.663Z,7.6
2022-11-06T03:04:50.734Z,7.6
2022-11-06T03:10:13.348Z,7.8
2022-11-06T03:15:50.198Z,7.9
2022-11-06T03:21:27.216Z,8
2022-11-06T03:27:05.189Z,8.1
2022-11-06T03:32:17.709Z,8.2
2022-11-06T03:37:38.701Z,8.3
2022-11-06T03:43:16.153Z,8.4
2022-11-06T03:48:52.611Z,8.5
2022-11-06T03:54:29.025Z,8.6
2022-11-06T04:00:07.590Z,8.6
2022-11-06T04:11:08.239Z,8.8
2022-11-06T04:16:29.504Z,8.8
2022-11-06T04:21:36.173Z,8.9
2022-11-06T04:27:13.747Z,8.9
2022-11-06T04:32:52.466Z,9
2022-11-06T04:37:59.465Z,9.1
2022-11-06T04:43:21.494Z,9.1
2022-11-06T04:54:05.512Z,9.3
2022-11-06T04:59:51.908Z,9.3
2022-11-06T05:05:14.227Z,9.4
2022-11-06T05:10:55.718Z,9.4
2022-11-06T05:16:32.772Z,9.6
2022-11-06T05:22:11.101Z,9.6
2022-11-06T05:27:53.761Z,9.7
2022-11-06T05:33:31.319Z,9.8
2022-11-06T05:39:08.583Z,9.9
2022-11-06T05:44:45.313Z,10
2022-11-06T05:50:47.447Z,10.1
2022-11-06T05:56:26.526Z,10.3
2022-11-06T06:01:48.164Z,10.4
2022-11-06T06:07:25.673Z,10.6
2022-11-06T06:13:04.149Z,11.1
2022-11-06T06:18:48.450Z,11.4
2022-11-06T06:24:26.025Z,11.8
2022-11-06T06:29:55.156Z,12.3
2022-11-06T06:35:32.512Z,12.8
2022-11-06T06:41:00.063Z,13.3
2022-11-06T06:46:44.839Z,13.8
2022-11-06T06:52:22.845Z,14.2
2022-11-06T06:58:00.376Z,14.8
2022-11-06T07:03:40.066Z,15.3
2022-11-06T07:09:09.141Z,15.8
2022-11-06T07:14:47.455Z,16.3
2022-11-06T07:20:09.770Z,16.9
2022-11-06T07:25:40.386Z,17.2
2022-11-06T07:31:03.066Z,17.4
2022-11-06T07:36:24.777Z,17.4
2022-11-06T07:41:47.223Z,17.6
2022-11-06T07:47:15.150Z,17.8
2022-11-06T07:52:27.924Z,18.1
2022-11-06T07:57:49.972Z,18.4
2022-11-06T08:03:17.135Z,18.9
2022-11-06T08:08:24.233Z,19.4
2022-11-06T08:13:47.456Z,19.8
2022-11-06T08:19:13.338Z,20.1
2022-11-06T08:24:43.193Z,20.3
2022-11-06T08:30:05.953Z,20.3
2022-11-06T08:35:29.901Z,20.1
2022-11-06T08:40:38.485Z,19.9
2022-11-06T08:46:02.714Z,19.8
2022-11-06T08:51:28.168Z,19.6
2022-11-06T08:57:09.139Z,19.6
2022-11-06T09:02:55.358Z,19.5
2022-11-06T09:08:40.422Z,19.4
2022-11-06T09:14:25.719Z,19.4
2022-11-06T09:19:53.816Z,19.6
2022-11-06T09:25:44.609Z,20.4
2022-11-06T09:31:10.293Z,21.2
2022-11-06T09:36:55.784Z,21.3
2022-11-06T09:42:41.271Z,21.2
2022-11-06T09:48:52.454Z,20.9
2022-11-06T09:54:36.042Z,20.8
2022-11-06T10:00:20.404Z,20.6
2022-11-06T10:06:06.969Z,20.6
2022-11-06T10:11:44.895Z,20.4
2022-11-06T10:17:22.235Z,20.4
2022-11-06T10:23:02.312Z,20.3
2022-11-06T10:28:40.174Z,20.3
2022-11-06T10:34:18.126Z,20.4
2022-11-06T10:39:59.444Z,20.5
2022-11-06T10:45:36.111Z,20.8
2022-11-06T10:51:19.144Z,21.2
2022-11-06T10:57:02.464Z,21.6
2022-11-06T11:02:41.864Z,21.8
2022-11-06T11:13:47.007Z,21.3
2022-11-06T11:19:10.028Z,21
2022-11-06T11:24:35.996Z,20.8
2022-11-06T11:30:00.752Z,20.6
2022-11-06T11:35:29.462Z,20.6
2022-11-06T11:40:52.655Z,20.5
2022-11-06T11:46:30.797Z,20.5
2022-11-06T11:52:12.620Z,20.6
2022-11-06T11:58:30.195Z,20.9
2022-11-06T12:04:12.480Z,21.3
2022-11-06T12:09:50.446Z,21.6
2022-11-06T12:15:12.689Z,21.9
2022-11-06T12:20:42.673Z,22.1
2022-11-06T12:26:20.095Z,22.3
2022-11-06T12:31:57.602Z,22.3
2022-11-06T12:38:04.499Z,22.1
2022-11-06T12:43:47.844Z,21.9
2022-11-06T12:49:27.434Z,21.7
2022-11-06T12:54:50.075Z,21.4
2022-11-06T13:00:12.109Z,21.2
2022-11-06T13:05:36.964Z,20.9
2022-11-06T13:11:17.806Z,20.8
2022-11-06T13:16:56.410Z,20.5
2022-11-06T13:22:35.079Z,20.3
2022-11-06T13:28:14.664Z,20
2022-11-06T13:33:52.397Z,19.7
2022-11-06T13:39:29.454Z,19.4
2022-11-06T13:44:51.778Z,19.2
2022-11-06T13:50:34.976Z,18.9
2022-11-06T14:00:51.618Z,18.4
2022-11-06T14:06:37.379Z,18.1
2022-11-06T14:12:15.433Z,17.9
2022-11-06T14:17:52.611Z,17.6
2022-11-06T14:23:31.775Z,17.4
2022-11-06T14:29:14.919Z,17.2
2022-11-06T14:40:55.059Z,16.8
2022-11-06T14:46:39.239Z,16.5
2022-11-06T14:52:17.650Z,16.3
2022-11-06T14:57:57.535Z,16.1
2022-11-06T15:03:37.480Z,15.9
2022-11-06T15:09:48.503Z,15.6
2022-11-06T15:15:36.348Z,15.4
2022-11-06T15:20:57.797Z,15.3
2022-11-06T15:25:49.296Z,15.1
2022-11-06T15:31:27.437Z,14.9
2022-11-06T15:36:49.393Z,14.8
2022-11-06T15:42:18.551Z,14.6
2022-11-06T15:47:56.392Z,14.4
2022-11-06T15:53:38.330Z,14.3
2022-11-06T15:59:25.856Z,14.1
2022-11-06T16:05:10.238Z,14
2022-11-06T16:10:48.393Z,13.9
2022-11-06T16:16:32.239Z,13.8
2022-11-06T16:22:14.774Z,13.6
2022-11-06T16:27:27.393Z,13.4
2022-11-06T16:32:25.204Z,13.4
2022-11-06T16:38:25.962Z,13.3
2022-11-06T16:44:19.528Z,13.1
2022-11-06T16:49:41.847Z,12.9
2022-11-06T17:00:42.874Z,12.8
2022-11-06T17:06:10.423Z,12.6
2022-11-06T17:11:33.080Z,12.5
2022-11-06T17:16:55.021Z,12.4
2022-11-06T17:22:32.730Z,12.4
2022-11-06T17:28:19.397Z,12.3
2022-11-06T17:33:41.776Z,12.2
2022-11-06T17:39:04.434Z,12.1
2022-11-06T17:49:54.937Z,11.9
2022-11-06T17:55:17.577Z,11.9
2022-11-06T18:00:45.431Z,11.9
2022-11-06T18:06:59.662Z,11.8
2022-11-06T18:12:37.402Z,11.7
2022-11-06T18:22:50.562Z,11.6
2022-11-06T18:27:42.104Z,11.6
2022-11-06T18:33:07.674Z,11.6
2022-11-06T18:38:52.013Z,11.6
2022-11-06T18:44:17.861Z,11.5
2022-11-06T18:49:58.526Z,11.4
2022-11-06T18:56:26.001Z,11.4
2022-11-06T19:02:12.004Z,11.4
2022-11-06T19:07:52.933Z,11.3
2022-11-06T19:13:18.073Z,11.3
2022-11-06T19:24:30.057Z,11.2
2022-11-06T19:30:37.122Z,11.1
2022-11-06T19:36:16.894Z,11.1
2022-11-06T19:41:37.929Z,11.1
2022-11-06T19:47:21.955Z,11
2022-11-06T19:54:10.802Z,10.9
2022-11-06T20:00:52.954Z,10.9
2022-11-06T20:06:23.088Z,10.8
2022-11-06T20:11:45.840Z,10.7
2022-11-06T20:17:25.477Z,10.6
2022-11-06T20:22:53.917Z,10.4
2022-11-06T20:28:21.997Z,10.4
2022-11-06T20:34:03.055Z,10.3
2022-11-06T20:39:41.493Z,10.2
2022-11-06T20:45:21.832Z,10.1
2022-11-06T20:50:45.808Z,10.1
2022-11-06T20:57:05.658Z,10
2022-11-06T21:02:28.642Z,9.9
2022-11-06T21:07:35.659Z,9.9
2022-11-06T21:12:58.434Z,9.9
2022-11-06T21:24:03.463Z,9.8
2022-11-06T21:29:28.383Z,9.8
2022-11-06T21:34:57.990Z,9.8
2022-11-06T21:40:31.383Z,9.7
2022-11-06T21:45:54.139Z,9.7
2022-11-06T21:56:49.311Z,9.7
2022-11-06T22:02:00.369Z,9.7
2022-11-06T22:07:38.960Z,9.7
2022-11-06T22:13:22.726Z,9.6
2022-11-06T22:18:45.458Z,9.6
2022-11-06T22:23:52.600Z,9.6
2022-11-06T22:31:41.119Z,9.5
2022-11-06T22:36:48.385Z,9.5
2022-11-06T22:42:26.675Z,9.4
2022-11-06T22:48:09.761Z,9.4
2022-11-06T22:53:32.116Z,9.3
2022-11-06T22:59:09.747Z,9.2
2022-11-06T23:04:51.366Z,9.1
2022-11-06T23:10:31.479Z,9
2022-11-06T23:16:10.432Z,8.9
2022-11-06T23:26:39.808Z,8.8
2022-11-06T23:32:04.609Z,8.6
2022-11-06T23:37:18.632Z,8.5
2022-11-06T23:42:25.845Z,8.4
2022-11-06T23:47:48.256Z,8.3
2022-11-06T23:53:28.001Z,8.3
2022-11-06T23:58:34.775Z,8.1
